Corpus Christi Naval Air Sta, Texas
Current Conditions -  °F | °C
As of 5:56 PM on Monday 20 Oct 2014 (Local Time) from KNGP Reporting Station
Broken Clouds Broken Clouds  
Wind Chill: 74°   Ceiling: 7500
Heat Index: 74°   Visibility: 10mi
Dew Point: 73°   Wind: 9mph
Humidity: 97%   Direction: 10°N
Pressure: 29.95"   Gusts: NA
Location:  27.6657°N, 97.1897°W
Report Text: KNGP 202256Z 01008KT 10SM FEW018 SCT030TCU BKN075 BKN140 BKN250 23/23 A2995 RMK AO2 RAE31 SLP140 CB DSNT NE AND SE AND NW TCU E AND SW WR// T2 SET P0001 T02330228 $
Loading
Personal Weather Stations






























Interactive Weather Map
Tropical Storm Tracking
New forecast layout! Learn more

10-Day Weather Forecast

Advertisements
Track Severe Weather on mobile